Durango, CO

2:01 PM MDT on April 28, 2017 (GMT -0600)
The Boulevard | | Change Station

Elev 6568 ft 37.27 °N, 107.88 °W | Updated 11 minutes ago

Overcast
Overcast
43.7 °F
Feels Like 44 °F
N
0.0
Wind Variable Wind from SW
Gusts 5.0 mph

Today
High -- | Low -- °F
--% Chance of Precip.
Yesterday
High -- | Low -- °F
Precip. -- in
Pressure 29.69 in
Visibility 10.0 miles
Clouds Few 2900 ft
Mostly Cloudy 8000 ft
Windchill 44 °F
Dew Point 21 °F
Humidity 41%
Rainfall 0.00 in
Snow Depth Not available.
6:19 AM 7:58 PM
Waxing Crescent, 8% visible
METAR KDRO 281953Z AUTO 22012G21KT 10SM FEW029 BKN080 05/M04 A2972 RMK AO2 SLP052 T00501044
Pressure 29.69 in
Visibility 10.0 miles
Clouds Few 2900 ft
Mostly Cloudy 8000 ft
Windchill 44 °F
Dew Point 21 °F
Humidity 41%
Rainfall 0.00 in
Snow Depth Not available.
6:19 AM 7:58 PM
Waxing Crescent, 8% visible
METAR KDRO 281953Z AUTO 22012G21KT 10SM FEW029 BKN080 05/M04 A2972 RMK AO2 SLP052 T00501044

Get Severe Weather Alerts

Thanks for signing up!

Be on the lookout for a verification email in your inbox.

You'll start receiving the daily forecast at 8 AM.

×

10-Day Weather Forecast

Almanac

Astronomy

Apr. 28, 2017 Rise Set
Actual Time
Civil Twilight
Nautical Twilight
Astronomical Twilight
Moon
Length of Visible Light
Length of Day
Tomorrow will be .
, % of the Moon is Illuminated

Today's Extremes

State Highs State Lows

Community

WunderPhotos

WunderBlog® & News

Nearby

Air Quality

  Air Quality AQ Index Pollutant
Not available.

Snow Depth

Station Depth Elevation

Earthquake Activity

City Distance Mag. Time & Date
Minimum magnitude displayed is 2.5.

Coastal Water Temperatures

Place Temperature

Stations

Nearby Weather Stations

Station Location Temp. Windchill Dew Point Humidity Wind Precip. Elev Updated Type
                   

Watches & Warnings

There are currently no watches in effect.